Bookmark and Share
Track history (hours):
 

Boris Syromyatnikov

Last reported at 2014-Apr-17 17:19 UTC. Time now 2014-Apr-19 00:07 UTC.
Position N 59°57' W 009°13'.

Length 120 m; beam 19 m.

Type: Fishing. MMSI: 273529800.

NotesDate/timePositionNaut miles runAvg speedWind from/ knotsBaromVisibWave heightAir tempDewpointWater temp
2014-Apr-17 17:19N 59°57' W 009°13'7 8.6
2014-Apr-17 16:32N 59°53' W 009°02'2 2.2
2014-Apr-17 15:32N 59°55' W 009°04'4 3.3
2014-Apr-17 14:26N 59°56' W 009°11'3 3.1
2014-Apr-17 13:26N 59°56' W 009°18'5 5.7
2014-Apr-17 12:32N 59°55' W 009°07'7 6.7
2014-Apr-17 11:32N 59°51' W 008°57'3 2.6
2014-Apr-17 10:29N 59°53' W 008°59'4 3.7
2014-Apr-17 09:32N 59°55' W 009°05'3 2.5
2014-Apr-17 08:31N 59°55' W 009°10'4 4.5
2014-Apr-17 07:32N 59°54' W 009°02'3 2.8
2014-Apr-17 06:32N 59°53' W 008°56'3 3.4
2014-Apr-17 05:32N 59°54' W 009°03'4 3.9
2014-Apr-17 04:32N 59°54' W 009°10'3 2.3
2014-Apr-17 03:17N 59°56' W 009°06'6 7.0
2014-Apr-17 02:23N 59°55' W 008°54'1 0.9
2014-Apr-17 01:32N 59°56' W 008°55'3 3.4
2014-Apr-17 00:32N 59°54' W 009°02'4 4.0
2014-Apr-16 23:32N 59°53' W 009°09'2 2.1
2014-Apr-16 22:32N 59°53' W 009°05'6 5.6
2014-Apr-16 21:32N 59°56' W 008°55'3 3.2
2014-Apr-16 20:29N 59°54' W 009°01'4 3.9
2014-Apr-16 19:32N 59°52' W 009°07'2 1.7
2014-Apr-16 18:29N 59°52' W 009°11'8 8.9
2014-Apr-16 17:32N 59°56' W 008°55'1 0.6
2014-Apr-16 16:29N 59°55' W 008°56'3 3.2
2014-Apr-16 15:32N 59°54' W 009°01'4 3.5
2014-Apr-16 14:32N 59°53' W 009°08'2 1.8
2014-Apr-16 13:29N 59°52' W 009°11'8 8.1
2014-Apr-16 12:32N 59°56' W 008°58'2 2.3
2014-Apr-16 11:32N 59°54' W 009°02'3 3.0
2014-Apr-16 10:32N 59°51' W 009°01'4 3.5
2014-Apr-16 09:29N 59°52' W 008°54'7 7.9
2014-Apr-16 08:32N 59°51' W 009°09'3 3.3
2014-Apr-16 07:32N 59°53' W 009°13'2 1.6
2014-Apr-16 06:32N 59°52' W 009°11'3 3.1
2014-Apr-16 05:32N 59°53' W 009°06'4 3.3
2014-Apr-16 04:23N 59°52' W 008°58'3 3.4
2014-Apr-16 03:29N 59°51' W 008°52'3 3.1
2014-Apr-16 02:23N 59°50' W 008°46'3 3.2
2014-Apr-16 01:17N 59°50' W 008°39'3 3.3
2014-Apr-16 00:32N 59°51' W 008°34'1 1.5
2014-Apr-15 23:32N 59°52' W 008°36'4 3.6
2014-Apr-15 22:33N 59°52' W 008°43'4 3.6
2014-Apr-15 21:32N 59°54' W 008°50'1 0.9
2014-Apr-15 20:31N 59°54' W 008°51'6 5.2
2014-Apr-15 19:17N 59°54' W 008°39'3 2.9
2014-Apr-15 18:20N 59°52' W 008°42'3 3.6
2014-Apr-15 17:32N 59°53' W 008°48'1 1.3
2014-Apr-15 16:29N 59°54' W 008°49'5 5.7
2014-Apr-15 15:32N 59°57' W 008°40'3 2.5
2014-Apr-15 14:32N 59°54' W 008°41'3 1.7
2014-Apr-15 12:30N 59°52' W 008°36'3 2.5
2014-Apr-15 11:29N 59°53' W 008°31'6 3.2
2014-Apr-15 09:32N 59°53' W 008°43'2 2.4
2014-Apr-15 08:32N 59°55' W 008°45'1 1.3
2014-Apr-15 07:32N 59°54' W 008°42'23 0.9
2014-Apr-14 05:32N 59°55' W 007°57'27 3.9
2014-Apr-13 22:32N 60°05' W 008°48'1110.6
2014-Apr-13 21:32N 60°14' W 008°58'9 9.2
2014-Apr-13 20:32N 60°23' W 008°49'9 7.7
2014-Apr-13 19:23N 60°22' W 008°31'18 1.4
2014-Apr-13 06:20N 60°21' W 009°07'6 1.9
2014-Apr-13 03:17N 60°15' W 009°13'14 7.7
2014-Apr-13 01:26N 60°12' W 009°40'11 1.5
2014-Apr-12 18:08N 60°11' W 010°03'2 2.5
2014-Apr-12 17:32N 60°11' W 009°60'2 2.2
2014-Apr-12 16:29N 60°11' W 009°55'2 2.2
2014-Apr-12 15:32N 60°11' W 009°51'  
2014-Apr-09 09:17N 59°55' W 008°05'3 0.2
2014-Apr-08 21:29N 59°55' W 007°59'5 0.3
2014-Apr-08 06:11N 59°57' W 008°09'  

Dump ship's entire track history

sailing weather and tide predictions

Boris Syromyatnikov — UCUF — position and weather